createdAt,value
2023-03-26T00:01:15.461Z,5.75
2023-03-26T00:03:45.330Z,5.93
2023-03-26T00:06:13.718Z,5.90
2023-03-26T00:08:42.421Z,6.45
2023-03-26T00:11:10.474Z,6.47
2023-03-26T00:13:37.045Z,6.82
2023-03-26T00:16:04.072Z,5.85
2023-03-26T00:18:31.592Z,5.95
2023-03-26T00:20:58.947Z,6.05
2023-03-26T00:23:27.029Z,6.50
2023-03-26T00:25:54.724Z,7.22
2023-03-26T00:28:22.990Z,6.53
2023-03-26T00:30:50.654Z,5.28
2023-03-26T00:33:17.580Z,7.40
2023-03-26T00:35:47.040Z,6.55
2023-03-26T00:38:17.720Z,6.07
2023-03-26T00:40:44.292Z,5.65
2023-03-26T00:43:19.002Z,6.45
2023-03-26T00:45:57.427Z,6.40
2023-03-26T00:48:37.864Z,6.65
2023-03-26T00:51:10.440Z,5.95
2023-03-26T00:53:38.935Z,6.50
2023-03-26T00:56:07.104Z,5.88
2023-03-26T00:58:34.046Z,6.35
2023-03-26T01:01:07.241Z,6.70
2023-03-26T01:03:35.838Z,6.35
2023-03-26T01:06:32.935Z,6.78
2023-03-26T01:09:04.266Z,6.70
2023-03-26T01:11:32.531Z,6.80
2023-03-26T01:14:02.059Z,6.05
2023-03-26T01:16:41.936Z,5.82
2023-03-26T01:19:16.439Z,6.78
2023-03-26T01:21:43.028Z,7.10
2023-03-26T01:24:10.569Z,7.65
2023-03-26T01:26:46.063Z,6.95
2023-03-26T01:29:20.908Z,6.82
2023-03-26T01:32:00.628Z,8.07
2023-03-26T01:34:49.679Z,8.90
2023-03-26T01:37:22.396Z,5.93
2023-03-26T01:39:56.943Z,6.85
2023-03-26T01:42:49.169Z,7.22
2023-03-26T01:45:22.147Z,9.43
2023-03-26T01:47:49.271Z,6.45
2023-03-26T01:50:16.011Z,7.05
2023-03-26T01:52:42.647Z,7.35
2023-03-26T01:55:12.714Z,7.22
2023-03-26T01:57:42.178Z,6.53
2023-03-26T02:00:20.825Z,7.03
2023-03-26T02:03:05.059Z,6.97
2023-03-26T02:05:40.434Z,6.82
2023-03-26T02:08:22.670Z,6.30
2023-03-26T02:10:53.015Z,8.27
2023-03-26T02:13:20.165Z,8.35
2023-03-26T02:16:18.688Z,6.43
2023-03-26T02:18:47.357Z,7.30
2023-03-26T02:21:20.244Z,7.25
2023-03-26T02:23:50.842Z,6.82
2023-03-26T02:26:19.487Z,6.85
2023-03-26T02:28:46.099Z,7.28
2023-03-26T02:31:13.977Z,7.22
2023-03-26T02:33:40.646Z,7.43
2023-03-26T02:36:08.602Z,7.85
2023-03-26T02:38:35.356Z,7.65
2023-03-26T02:41:02.672Z,7.38
2023-03-26T02:43:29.178Z,8.05
2023-03-26T02:45:56.133Z,7.60
2023-03-26T02:48:23.156Z,7.88
2023-03-26T02:50:54.330Z,7.97
2023-03-26T02:53:22.011Z,6.85
2023-03-26T02:55:48.542Z,8.00
2023-03-26T02:58:18.074Z,8.20
2023-03-26T03:00:47.164Z,8.50
2023-03-26T03:03:14.366Z,7.03
2023-03-26T03:05:43.345Z,7.15
2023-03-26T03:08:10.264Z,7.28
2023-03-26T03:10:37.822Z,7.53
2023-03-26T03:13:07.685Z,7.30
2023-03-26T03:18:02.636Z,7.30
2023-03-26T03:20:30.360Z,7.25
2023-03-26T03:22:56.876Z,6.93
2023-03-26T03:25:23.430Z,7.60
2023-03-26T03:27:50.251Z,6.78
2023-03-26T03:30:17.088Z,6.55
2023-03-26T03:32:43.678Z,7.63
2023-03-26T03:35:10.565Z,6.47
2023-03-26T03:37:37.153Z,7.05
2023-03-26T03:40:08.230Z,6.65
2023-03-26T03:42:34.762Z,6.40
2023-03-26T03:45:02.098Z,7.85
2023-03-26T03:47:28.664Z,8.32
2023-03-26T03:49:56.935Z,7.20
2023-03-26T03:52:23.416Z,6.32
2023-03-26T03:54:49.989Z,6.43
2023-03-26T03:57:18.785Z,7.25
2023-03-26T03:59:48.005Z,7.20
2023-03-26T04:02:26.140Z,7.22
2023-03-26T04:04:53.120Z,7.35
2023-03-26T04:07:20.363Z,7.18
2023-03-26T04:09:47.033Z,6.15
2023-03-26T04:12:13.521Z,6.13
2023-03-26T04:14:40.023Z,6.72
2023-03-26T04:17:06.589Z,6.55
2023-03-26T04:19:33.088Z,6.35
2023-03-26T04:22:02.698Z,6.90
2023-03-26T04:24:29.821Z,6.05
2023-03-26T04:26:58.200Z,5.63
2023-03-26T04:29:27.731Z,5.90
2023-03-26T04:31:58.787Z,6.82
2023-03-26T04:36:54.960Z,6.22
2023-03-26T04:39:29.530Z,6.03
2023-03-26T04:41:57.840Z,5.85
2023-03-26T04:44:24.484Z,6.72
2023-03-26T04:46:52.975Z,5.78
2023-03-26T04:49:19.803Z,7.57
2023-03-26T04:51:47.090Z,6.78
2023-03-26T04:54:14.513Z,6.55
2023-03-26T04:56:54.693Z,7.57
2023-03-26T04:59:26.274Z,6.80
2023-03-26T05:01:53.709Z,5.60
2023-03-26T05:04:20.271Z,7.47
2023-03-26T05:06:46.977Z,6.85
2023-03-26T05:09:14.555Z,5.82
2023-03-26T05:11:41.453Z,5.50
2023-03-26T05:14:08.498Z,5.68
2023-03-26T05:16:35.841Z,5.90
2023-03-26T05:19:02.575Z,5.65
2023-03-26T05:21:29.144Z,6.32
2023-03-26T05:23:55.761Z,6.15
2023-03-26T05:26:22.261Z,6.40
2023-03-26T05:28:50.347Z,5.95
2023-03-26T05:31:21.388Z,6.05
2023-03-26T05:33:48.692Z,5.50
2023-03-26T05:36:17.215Z,7.05
2023-03-26T05:38:49.345Z,6.07
2023-03-26T05:41:16.739Z,5.70
2023-03-26T05:43:47.749Z,6.57
2023-03-26T05:46:15.066Z,5.78
2023-03-26T05:48:41.628Z,6.20
2023-03-26T05:51:08.409Z,5.30
2023-03-26T05:53:35.360Z,7.75
2023-03-26T05:56:02.117Z,6.43
2023-03-26T05:58:31.026Z,6.43
2023-03-26T06:01:08.534Z,6.03
2023-03-26T06:03:39.730Z,5.65
2023-03-26T06:06:08.204Z,4.90
2023-03-26T06:08:34.682Z,5.82
2023-03-26T06:11:03.273Z,5.97
2023-03-26T06:13:30.452Z,4.97
2023-03-26T06:15:58.329Z,4.80
2023-03-26T06:18:26.047Z,5.88
2023-03-26T06:20:53.378Z,5.30
2023-03-26T06:23:20.195Z,7.32
2023-03-26T06:25:47.777Z,5.43
2023-03-26T06:28:14.868Z,6.45
2023-03-26T06:30:41.492Z,5.88
2023-03-26T06:33:08.415Z,5.72
2023-03-26T06:35:34.970Z,6.65
2023-03-26T06:38:01.564Z,5.03
2023-03-26T06:40:29.883Z,5.43
2023-03-26T06:43:08.268Z,5.85
2023-03-26T06:45:36.393Z,6.43
2023-03-26T06:48:03.081Z,5.03
2023-03-26T06:50:29.887Z,5.15
2023-03-26T06:52:56.832Z,5.32
2023-03-26T06:55:23.670Z,5.10
2023-03-26T06:57:54.627Z,5.00
2023-03-26T07:00:21.634Z,5.38
2023-03-26T07:02:48.331Z,9.02
2023-03-26T07:05:15.661Z,7.05
2023-03-26T07:07:46.599Z,6.30
2023-03-26T07:10:14.234Z,6.63
2023-03-26T07:12:42.616Z,6.95
2023-03-26T07:15:10.191Z,6.55
2023-03-26T07:17:37.137Z,4.93
2023-03-26T07:20:05.325Z,5.90
2023-03-26T07:22:32.335Z,5.68
2023-03-26T07:24:59.101Z,5.93
2023-03-26T07:27:43.957Z,5.72
2023-03-26T07:30:32.129Z,7.95
2023-03-26T07:33:44.995Z,6.22
2023-03-26T07:36:29.099Z,4.90
2023-03-26T07:39:00.167Z,4.25
2023-03-26T07:41:53.874Z,5.55
2023-03-26T07:44:48.656Z,4.38
2023-03-26T07:47:29.333Z,7.65
2023-03-26T07:49:57.889Z,5.25
2023-03-26T07:52:26.519Z,4.82
2023-03-26T07:54:53.564Z,5.22
2023-03-26T07:57:40.718Z,6.40
2023-03-26T08:00:16.419Z,6.57
2023-03-26T08:02:55.130Z,5.15
2023-03-26T08:05:28.874Z,5.15
2023-03-26T08:08:09.999Z,5.65
2023-03-26T08:13:32.322Z,4.93
2023-03-26T08:16:23.718Z,6.55
2023-03-26T08:19:02.013Z,6.25
2023-03-26T08:21:34.833Z,6.45
2023-03-26T08:24:12.554Z,6.90
2023-03-26T08:26:45.460Z,5.65
2023-03-26T08:29:21.571Z,5.90
2023-03-26T08:31:49.269Z,5.93
2023-03-26T08:34:15.824Z,6.75
2023-03-26T08:36:42.902Z,10.20
2023-03-26T08:39:09.469Z,6.70
2023-03-26T08:41:55.029Z,5.55
2023-03-26T08:44:41.506Z,5.35
2023-03-26T08:47:38.141Z,5.40
2023-03-26T08:50:41.671Z,5.78
2023-03-26T08:53:21.792Z,5.03
2023-03-26T08:55:54.244Z,5.20
2023-03-26T08:58:58.432Z,5.30
2023-03-26T09:01:53.250Z,5.78
2023-03-26T09:04:38.588Z,5.75
2023-03-26T09:07:26.722Z,5.95
2023-03-26T09:09:56.070Z,5.32
2023-03-26T09:12:31.471Z,5.43
2023-03-26T09:15:16.544Z,5.93
2023-03-26T09:18:01.321Z,6.30
2023-03-26T09:21:16.491Z,6.47
2023-03-26T09:24:15.119Z,5.82
2023-03-26T09:27:12.394Z,5.63
2023-03-26T09:30:04.511Z,5.57
2023-03-26T09:32:40.294Z,6.30
2023-03-26T09:35:13.266Z,5.85
2023-03-26T09:37:59.074Z,6.03
2023-03-26T09:40:44.336Z,5.15
2023-03-26T09:43:16.881Z,6.53
2023-03-26T09:45:55.505Z,5.50
2023-03-26T09:48:47.534Z,5.72
2023-03-26T09:51:33.261Z,4.50
2023-03-26T09:54:24.979Z,5.28
2023-03-26T09:57:06.027Z,6.03
2023-03-26T10:02:55.405Z,6.05
2023-03-26T10:05:30.542Z,4.38
2023-03-26T10:08:06.685Z,4.88
2023-03-26T10:10:55.112Z,5.38
2023-03-26T10:13:40.816Z,4.63
2023-03-26T10:16:08.075Z,7.28
2023-03-26T10:19:07.745Z,6.53
2023-03-26T10:21:40.529Z,6.18
2023-03-26T10:24:28.499Z,4.47
2023-03-26T10:27:13.087Z,4.90
2023-03-26T10:29:42.832Z,4.40
2023-03-26T10:32:44.196Z,4.55
2023-03-26T10:35:30.286Z,4.32
2023-03-26T10:38:00.457Z,4.53
2023-03-26T10:40:49.395Z,4.55
2023-03-26T10:43:40.704Z,4.03
2023-03-26T10:46:25.802Z,4.10
2023-03-26T10:49:01.017Z,4.28
2023-03-26T10:51:39.570Z,4.93
2023-03-26T10:54:23.682Z,4.20
2023-03-26T10:56:51.244Z,3.60
2023-03-26T10:59:19.011Z,3.60
2023-03-26T11:01:54.685Z,7.50
2023-03-26T11:04:21.160Z,4.03
2023-03-26T11:07:06.873Z,4.32
2023-03-26T11:09:59.239Z,2.97
2023-03-26T11:12:28.089Z,2.90
2023-03-26T11:15:13.318Z,2.65
2023-03-26T11:17:51.940Z,2.80
2023-03-26T11:20:34.725Z,2.75
2023-03-26T11:23:24.226Z,3.08
2023-03-26T11:26:17.716Z,2.97
2023-03-26T11:29:03.469Z,3.42
2023-03-26T11:31:48.109Z,3.20
2023-03-26T11:34:21.573Z,3.00
2023-03-26T11:36:54.039Z,2.90
2023-03-26T11:39:29.887Z,2.80
2023-03-26T11:42:06.219Z,2.60
2023-03-26T11:44:48.375Z,2.80
2023-03-26T11:47:21.231Z,3.00
2023-03-26T11:49:50.092Z,2.90
2023-03-26T11:52:16.967Z,2.90
2023-03-26T11:54:48.256Z,3.53
2023-03-26T11:57:20.078Z,2.70
2023-03-26T11:59:57.092Z,3.85
2023-03-26T12:02:24.732Z,2.97
2023-03-26T12:04:55.373Z,2.70
2023-03-26T12:07:23.001Z,2.75
2023-03-26T12:09:53.298Z,2.75
2023-03-26T12:12:20.468Z,2.70
2023-03-26T12:14:47.517Z,4.68
2023-03-26T12:17:31.411Z,3.08
2023-03-26T12:19:59.111Z,2.78
2023-03-26T12:22:38.903Z,2.90
2023-03-26T12:25:23.060Z,2.63
2023-03-26T12:27:52.895Z,2.55
2023-03-26T12:30:22.807Z,2.60
2023-03-26T12:32:53.414Z,2.40
2023-03-26T12:38:22.189Z,2.50
2023-03-26T12:40:50.050Z,2.70
2023-03-26T12:44:55.538Z,4.57
2023-03-26T12:47:58.377Z,3.20
2023-03-26T12:49:11.924Z,2.95
2023-03-26T12:51:47.848Z,2.70
2023-03-26T12:54:49.553Z,2.67
2023-03-26T12:57:25.262Z,2.40
2023-03-26T13:00:01.093Z,2.80
2023-03-26T13:03:19.042Z,2.67
2023-03-26T13:05:48.896Z,2.80
2023-03-26T13:08:30.032Z,2.65
2023-03-26T13:11:15.533Z,2.50
2023-03-26T13:13:57.267Z,2.63
2023-03-26T13:16:51.913Z,2.88
2023-03-26T13:19:23.019Z,3.00
2023-03-26T13:22:14.239Z,2.70
2023-03-26T13:25:04.141Z,2.53
2023-03-26T13:27:58.734Z,2.90
2023-03-26T13:30:40.557Z,3.13
2023-03-26T13:33:07.105Z,2.80
2023-03-26T13:35:37.539Z,2.90
2023-03-26T13:38:41.730Z,2.95
2023-03-26T13:41:49.699Z,2.60
2023-03-26T13:44:26.150Z,2.95
2023-03-26T13:46:55.728Z,4.32
2023-03-26T13:49:37.690Z,3.60
2023-03-26T13:52:04.305Z,3.15
2023-03-26T13:54:45.867Z,3.00
2023-03-26T13:57:21.586Z,2.90
2023-03-26T13:59:50.287Z,3.00
2023-03-26T14:02:39.012Z,3.35
2023-03-26T14:05:22.976Z,3.80
2023-03-26T14:08:25.552Z,3.60
2023-03-26T14:11:15.476Z,2.83
2023-03-26T14:13:57.071Z,3.05
2023-03-26T14:16:33.253Z,3.10
2023-03-26T14:19:21.497Z,3.30
2023-03-26T14:22:13.107Z,3.00
2023-03-26T14:24:58.926Z,3.10
2023-03-26T14:27:45.188Z,3.17
2023-03-26T14:30:57.384Z,3.65
2023-03-26T14:33:45.750Z,3.47
2023-03-26T14:36:21.627Z,3.80
2023-03-26T14:39:06.525Z,3.10
2023-03-26T14:41:45.368Z,3.80
2023-03-26T14:44:47.692Z,3.20
2023-03-26T14:47:20.660Z,3.40
2023-03-26T14:50:09.440Z,3.58
2023-03-26T14:52:50.366Z,3.80
2023-03-26T14:55:24.468Z,4.32
2023-03-26T14:58:22.062Z,3.70
2023-03-26T15:01:28.724Z,4.47
2023-03-26T15:04:17.196Z,6.15
2023-03-26T15:07:22.208Z,4.10
2023-03-26T15:10:11.674Z,4.18
2023-03-26T15:13:03.688Z,4.65
2023-03-26T15:15:39.327Z,4.22
2023-03-26T15:18:17.041Z,4.57
2023-03-26T15:21:19.279Z,4.30
2023-03-26T15:24:30.932Z,3.90
2023-03-26T15:27:27.040Z,4.03
2023-03-26T15:30:12.035Z,5.22
2023-03-26T15:32:41.890Z,4.85
2023-03-26T15:35:23.927Z,4.73
2023-03-26T15:38:24.399Z,4.97
2023-03-26T15:40:51.260Z,5.55
2023-03-26T15:43:21.632Z,4.80
2023-03-26T15:45:56.249Z,7.00
2023-03-26T15:48:36.515Z,7.35
2023-03-26T15:51:23.098Z,4.68
2023-03-26T15:54:00.574Z,4.78
2023-03-26T15:56:27.474Z,4.32
2023-03-26T15:59:00.108Z,4.40
2023-03-26T16:01:48.620Z,3.60
2023-03-26T16:04:50.431Z,3.65
2023-03-26T16:07:58.864Z,3.97
2023-03-26T16:10:56.055Z,4.03
2023-03-26T16:13:26.095Z,4.10
2023-03-26T16:16:01.004Z,3.95
2023-03-26T16:18:38.213Z,3.80
2023-03-26T16:21:34.577Z,5.47
2023-03-26T16:24:07.403Z,4.60
2023-03-26T16:26:55.543Z,4.20
2023-03-26T16:29:28.616Z,5.40
2023-03-26T16:32:10.948Z,5.35
2023-03-26T16:35:08.513Z,6.30
2023-03-26T16:37:36.933Z,5.68
2023-03-26T16:40:22.315Z,8.07
2023-03-26T16:43:10.174Z,6.95
2023-03-26T16:45:55.395Z,7.65
2023-03-26T16:48:27.936Z,6.90
2023-03-26T16:51:10.253Z,7.45
2023-03-26T16:54:00.955Z,7.00
2023-03-26T16:56:28.116Z,6.22
2023-03-26T16:59:33.087Z,7.60
2023-03-26T17:02:06.852Z,8.20
2023-03-26T17:04:34.525Z,8.05
2023-03-26T17:07:04.173Z,7.80
2023-03-26T17:10:08.850Z,8.27
2023-03-26T17:12:41.178Z,7.95
2023-03-26T17:15:36.858Z,7.97
2023-03-26T17:18:13.268Z,7.65
2023-03-26T17:20:44.421Z,7.82
2023-03-26T17:23:26.468Z,6.68
2023-03-26T17:26:09.483Z,6.75
2023-03-26T17:29:17.704Z,6.43
2023-03-26T17:32:15.075Z,6.72
2023-03-26T17:34:50.983Z,6.40
2023-03-26T17:37:18.808Z,6.65
2023-03-26T17:39:48.187Z,6.32
2023-03-26T17:42:18.895Z,5.50
2023-03-26T17:44:58.740Z,5.95
2023-03-26T17:47:38.534Z,5.28
2023-03-26T17:50:07.994Z,5.53
2023-03-26T17:52:48.152Z,5.25
2023-03-26T17:55:25.966Z,5.03
2023-03-26T17:57:56.816Z,5.15
2023-03-26T18:02:59.125Z,6.85
2023-03-26T18:05:29.280Z,7.03
2023-03-26T18:08:06.389Z,5.63
2023-03-26T18:11:12.465Z,6.22
2023-03-26T18:14:00.987Z,6.75
2023-03-26T18:16:50.957Z,6.15
2023-03-26T18:19:19.877Z,5.72
2023-03-26T18:21:50.429Z,5.25
2023-03-26T18:24:36.948Z,5.32
2023-03-26T18:27:12.814Z,8.60
2023-03-26T18:29:45.569Z,7.22
2023-03-26T18:32:12.136Z,6.30
2023-03-26T18:34:46.209Z,8.43
2023-03-26T18:37:14.784Z,6.45
2023-03-26T18:39:44.496Z,6.57
2023-03-26T18:42:22.627Z,6.65
2023-03-26T18:44:52.622Z,5.90
2023-03-26T18:47:19.916Z,6.40
2023-03-26T18:49:48.333Z,5.85
2023-03-26T18:52:17.234Z,9.10
2023-03-26T18:54:48.885Z,6.47
2023-03-26T18:57:21.980Z,6.95
2023-03-26T18:59:50.601Z,6.75
2023-03-26T19:02:18.076Z,7.30
2023-03-26T19:04:47.100Z,6.97
2023-03-26T19:07:16.927Z,8.70
2023-03-26T19:09:44.201Z,6.80
2023-03-26T19:12:37.480Z,6.57
2023-03-26T19:15:07.781Z,7.18
2023-03-26T19:17:39.962Z,6.63
2023-03-26T19:20:13.785Z,5.82
2023-03-26T19:22:42.353Z,5.80
2023-03-26T19:25:20.315Z,5.55
2023-03-26T19:27:47.164Z,5.93
2023-03-26T19:30:39.474Z,5.38
2023-03-26T19:33:16.544Z,6.65
2023-03-26T19:35:45.758Z,5.80
2023-03-26T19:38:23.405Z,6.10
2023-03-26T19:40:52.479Z,5.32
2023-03-26T19:43:19.408Z,5.60
2023-03-26T19:46:00.128Z,5.43
2023-03-26T19:48:45.315Z,5.25
2023-03-26T19:51:22.754Z,5.30
2023-03-26T19:53:55.050Z,6.20
2023-03-26T19:56:22.205Z,5.45
2023-03-26T19:58:50.191Z,5.75
2023-03-26T20:01:28.273Z,5.68
2023-03-26T20:03:57.922Z,5.45
2023-03-26T20:06:41.642Z,5.88
2023-03-26T20:09:10.202Z,5.90
2023-03-26T20:11:38.503Z,5.57
2023-03-26T20:14:14.439Z,6.00
2023-03-26T20:16:42.918Z,5.78
2023-03-26T20:19:11.152Z,5.40
2023-03-26T20:21:41.478Z,5.28
2023-03-26T20:24:14.993Z,5.30
2023-03-26T20:26:42.307Z,5.50
2023-03-26T20:29:08.884Z,5.43
2023-03-26T20:31:35.531Z,6.55
2023-03-26T20:34:02.240Z,5.63
2023-03-26T20:36:33.307Z,5.30
2023-03-26T20:39:05.828Z,5.18
2023-03-26T20:41:33.712Z,5.82
2023-03-26T20:44:00.569Z,5.72
2023-03-26T20:46:31.202Z,5.57
2023-03-26T20:48:59.697Z,5.70
2023-03-26T20:51:28.478Z,6.40
2023-03-26T20:53:56.204Z,5.80
2023-03-26T20:56:23.441Z,5.32
2023-03-26T20:59:03.659Z,5.68
2023-03-26T21:01:34.778Z,6.28
2023-03-26T21:04:04.351Z,5.97
2023-03-26T21:06:31.234Z,6.47
2023-03-26T21:08:58.055Z,6.28
2023-03-26T21:11:39.856Z,5.60
2023-03-26T21:14:19.654Z,5.50
2023-03-26T21:16:47.048Z,6.15
2023-03-26T21:19:14.600Z,6.07
2023-03-26T21:21:47.646Z,5.80
2023-03-26T21:24:33.250Z,5.88
2023-03-26T21:27:28.775Z,6.03
2023-03-26T21:29:55.772Z,6.53
2023-03-26T21:32:23.063Z,6.43
2023-03-26T21:34:58.665Z,6.40
2023-03-26T21:37:25.827Z,6.35
2023-03-26T21:39:52.713Z,7.00
2023-03-26T21:42:19.540Z,6.40
2023-03-26T21:44:46.830Z,6.40
2023-03-26T21:47:14.087Z,6.28
2023-03-26T21:49:41.232Z,6.00
2023-03-26T21:52:14.621Z,6.82
2023-03-26T21:54:43.125Z,6.20
2023-03-26T21:57:32.470Z,7.68
2023-03-26T22:00:14.281Z,6.43
2023-03-26T22:02:59.920Z,6.38
2023-03-26T22:05:54.925Z,6.78
2023-03-26T22:08:31.780Z,6.60
2023-03-26T22:10:58.457Z,6.80
2023-03-26T22:13:25.226Z,6.70
2023-03-26T22:15:51.877Z,6.90
2023-03-26T22:18:21.557Z,6.55
2023-03-26T22:20:51.683Z,6.65
2023-03-26T22:23:18.494Z,6.50
2023-03-26T22:25:45.570Z,6.88
2023-03-26T22:28:12.716Z,6.32
2023-03-26T22:30:39.711Z,6.40
2023-03-26T22:33:10.706Z,7.75
2023-03-26T22:35:42.007Z,6.22
2023-03-26T22:38:09.755Z,6.60
2023-03-26T22:40:36.282Z,6.20
2023-03-26T22:43:02.957Z,7.43
2023-03-26T22:45:30.140Z,6.55
2023-03-26T22:48:03.826Z,6.05
2023-03-26T22:50:31.815Z,7.40
2023-03-26T22:52:58.416Z,6.00
2023-03-26T22:55:28.339Z,6.43
2023-03-26T22:57:55.823Z,6.70
2023-03-26T23:00:22.496Z,6.18
2023-03-26T23:02:49.988Z,5.80
2023-03-26T23:05:19.903Z,6.53
2023-03-26T23:07:46.466Z,6.35
2023-03-26T23:10:13.147Z,6.50
2023-03-26T23:12:40.147Z,7.43
2023-03-26T23:15:07.246Z,6.30
2023-03-26T23:17:35.509Z,5.90
2023-03-26T23:20:12.514Z,6.38
2023-03-26T23:22:39.122Z,6.53
2023-03-26T23:25:06.354Z,6.40
2023-03-26T23:27:33.108Z,6.68
2023-03-26T23:30:01.326Z,6.70
2023-03-26T23:32:28.216Z,6.43
2023-03-26T23:34:56.081Z,6.10
2023-03-26T23:37:23.527Z,6.32
2023-03-26T23:39:51.100Z,7.43
2023-03-26T23:42:29.266Z,8.50
2023-03-26T23:44:57.044Z,7.15
2023-03-26T23:47:24.156Z,6.10
2023-03-26T23:49:51.021Z,6.07
2023-03-26T23:52:17.612Z,7.18
2023-03-26T23:54:44.689Z,6.50
2023-03-26T23:57:11.400Z,6.53
2023-03-26T23:59:38.336Z,6.43
